createdAt,value
2023-03-27T00:01:30.756Z,20.71
2023-03-27T00:03:58.834Z,20.71
2023-03-27T00:06:27.331Z,20.76
2023-03-27T00:08:55.191Z,20.84
2023-03-27T00:11:25.148Z,20.67
2023-03-27T00:13:55.713Z,20.64
2023-03-27T00:16:26.730Z,20.78
2023-03-27T00:18:55.705Z,20.65
2023-03-27T00:21:24.401Z,20.76
2023-03-27T00:23:52.438Z,20.74
2023-03-27T00:26:23.903Z,20.35
2023-03-27T00:28:52.959Z,20.72
2023-03-27T00:31:20.949Z,20.70
2023-03-27T00:33:49.053Z,20.51
2023-03-27T00:36:16.813Z,20.44
2023-03-27T00:38:45.926Z,20.56
2023-03-27T00:41:13.716Z,20.54
2023-03-27T00:43:44.210Z,20.12
2023-03-27T00:46:36.774Z,20.63
2023-03-27T00:49:09.789Z,20.49
2023-03-27T00:51:41.237Z,20.61
2023-03-27T00:54:10.911Z,20.38
2023-03-27T00:56:39.038Z,20.33
2023-03-27T00:59:12.681Z,20.48
2023-03-27T01:01:41.391Z,20.44
2023-03-27T01:04:10.386Z,20.59
2023-03-27T01:06:42.101Z,20.52
2023-03-27T01:09:10.382Z,20.44
2023-03-27T01:12:14.415Z,20.51
2023-03-27T01:15:00.968Z,20.51
2023-03-27T01:18:04.305Z,20.49
2023-03-27T01:20:51.042Z,20.49
2023-03-27T01:23:58.729Z,20.47
2023-03-27T01:26:40.674Z,20.51
2023-03-27T01:29:19.687Z,20.49
2023-03-27T01:32:04.641Z,20.47
2023-03-27T01:35:11.792Z,20.32
2023-03-27T01:37:50.405Z,20.45
2023-03-27T01:40:31.038Z,20.44
2023-03-27T01:43:12.103Z,20.31
2023-03-27T01:45:51.040Z,20.19
2023-03-27T01:48:31.386Z,20.38
2023-03-27T01:51:08.340Z,20.13
2023-03-27T01:53:42.349Z,20.11
2023-03-27T01:56:26.294Z,20.03
2023-03-27T01:59:06.579Z,20.18
2023-03-27T02:01:39.392Z,20.38
2023-03-27T02:04:13.614Z,20.00
2023-03-27T02:06:47.334Z,20.05
2023-03-27T02:09:23.084Z,20.24
2023-03-27T02:12:01.298Z,20.24
2023-03-27T02:14:34.687Z,20.32
2023-03-27T02:17:10.410Z,20.22
2023-03-27T02:19:54.707Z,20.18
2023-03-27T02:22:37.564Z,19.90
2023-03-27T02:25:29.009Z,19.91
2023-03-27T02:28:15.557Z,20.15
2023-03-27T02:31:32.838Z,19.98
2023-03-27T02:34:29.490Z,20.12
2023-03-27T02:37:02.600Z,20.09
2023-03-27T02:40:15.188Z,20.01
2023-03-27T02:42:58.348Z,20.12
2023-03-27T02:45:47.333Z,19.79
2023-03-27T02:48:34.600Z,20.13
2023-03-27T02:51:12.554Z,20.09
2023-03-27T02:53:51.267Z,19.91
2023-03-27T02:56:22.553Z,19.58
2023-03-27T02:58:57.936Z,19.81
2023-03-27T03:01:40.773Z,19.81
2023-03-27T03:04:31.702Z,19.65
2023-03-27T03:07:04.676Z,20.01
2023-03-27T03:09:32.785Z,19.66
2023-03-27T03:12:01.589Z,19.57
2023-03-27T03:14:44.289Z,19.86
2023-03-27T03:17:14.283Z,19.58
2023-03-27T03:19:42.207Z,19.91
2023-03-27T03:22:10.163Z,19.89
2023-03-27T03:24:42.569Z,19.87
2023-03-27T03:27:16.189Z,19.62
2023-03-27T03:30:09.593Z,19.88
2023-03-27T03:32:55.523Z,19.90
2023-03-27T03:35:25.147Z,19.81
2023-03-27T03:37:54.095Z,19.85
2023-03-27T03:40:23.721Z,19.72
2023-03-27T03:42:56.777Z,19.62
2023-03-27T03:45:28.356Z,19.66
2023-03-27T03:47:56.231Z,19.74
2023-03-27T03:50:25.114Z,18.62
2023-03-27T03:52:52.944Z,19.35
2023-03-27T03:55:20.726Z,19.81
2023-03-27T03:57:48.752Z,19.70
2023-03-27T04:00:24.977Z,19.31
2023-03-27T04:02:55.718Z,19.79
2023-03-27T04:05:24.814Z,19.66
2023-03-27T04:07:55.055Z,19.33
2023-03-27T04:10:41.845Z,19.64
2023-03-27T04:13:19.311Z,19.65
2023-03-27T04:16:01.852Z,19.64
2023-03-27T04:18:39.487Z,19.31
2023-03-27T04:21:14.960Z,19.23
2023-03-27T04:23:46.382Z,19.28
2023-03-27T04:26:17.152Z,19.74
2023-03-27T04:29:04.409Z,19.52
2023-03-27T04:32:05.796Z,19.51
2023-03-27T04:34:42.535Z,19.55
2023-03-27T04:37:24.083Z,19.31
2023-03-27T04:40:18.328Z,19.73
2023-03-27T04:42:46.760Z,19.62
2023-03-27T04:45:23.502Z,19.63
2023-03-27T04:47:54.714Z,19.67
2023-03-27T04:50:23.251Z,19.54
2023-03-27T04:52:52.291Z,19.67
2023-03-27T04:55:25.913Z,19.58
2023-03-27T04:57:57.755Z,19.57
2023-03-27T05:00:25.476Z,19.61
2023-03-27T05:03:11.815Z,19.42
2023-03-27T05:05:52.322Z,19.27
2023-03-27T05:08:20.419Z,19.21
2023-03-27T05:10:48.254Z,19.44
2023-03-27T05:13:16.028Z,19.55
2023-03-27T05:15:43.907Z,19.69
2023-03-27T05:18:16.352Z,19.49
2023-03-27T05:20:48.989Z,19.16
2023-03-27T05:23:17.597Z,19.61
2023-03-27T05:26:00.052Z,19.58
2023-03-27T05:28:37.028Z,19.70
2023-03-27T05:31:05.296Z,19.42
2023-03-27T05:33:41.527Z,19.63
2023-03-27T05:36:10.842Z,19.59
2023-03-27T05:38:39.689Z,19.45
2023-03-27T05:41:16.467Z,19.69
2023-03-27T05:43:51.220Z,19.50
2023-03-27T05:46:21.309Z,18.77
2023-03-27T05:49:09.018Z,18.88
2023-03-27T05:51:36.869Z,19.71
2023-03-27T05:54:05.380Z,19.28
2023-03-27T05:56:41.397Z,19.70
2023-03-27T05:59:09.295Z,19.68
2023-03-27T06:01:40.076Z,19.03
2023-03-27T06:04:09.671Z,19.49
2023-03-27T06:07:02.694Z,19.72
2023-03-27T06:09:32.754Z,19.51
2023-03-27T06:12:19.742Z,19.69
2023-03-27T06:14:51.579Z,19.24
2023-03-27T06:17:36.504Z,19.48
2023-03-27T06:20:15.691Z,19.70
2023-03-27T06:22:53.325Z,19.13
2023-03-27T06:25:27.178Z,19.54
2023-03-27T06:27:55.029Z,19.70
2023-03-27T06:30:25.064Z,19.25
2023-03-27T06:33:12.375Z,19.52
2023-03-27T06:35:40.620Z,19.60
2023-03-27T06:38:19.226Z,19.43
2023-03-27T06:40:47.761Z,19.27
2023-03-27T06:43:21.583Z,19.65
2023-03-27T06:46:00.325Z,19.38
2023-03-27T06:48:47.931Z,19.82
2023-03-27T06:51:16.184Z,19.65
2023-03-27T06:53:44.184Z,19.26
2023-03-27T06:56:13.546Z,18.85
2023-03-27T06:59:01.618Z,19.79
2023-03-27T07:01:29.910Z,19.80
2023-03-27T07:04:22.003Z,19.05
2023-03-27T07:07:00.542Z,19.96
2023-03-27T07:09:33.438Z,19.74
2023-03-27T07:12:05.703Z,19.81
2023-03-27T07:14:36.554Z,19.83
2023-03-27T07:17:04.661Z,19.91
2023-03-27T07:19:53.642Z,19.92
2023-03-27T07:22:26.102Z,19.85
2023-03-27T07:24:53.908Z,19.95
2023-03-27T07:27:24.573Z,19.97
2023-03-27T07:30:00.392Z,19.92
2023-03-27T07:32:37.250Z,20.02
2023-03-27T07:35:08.535Z,19.59
2023-03-27T07:38:12.111Z,19.76
2023-03-27T07:41:07.013Z,19.67
2023-03-27T07:43:53.675Z,19.74
2023-03-27T07:46:26.645Z,20.09
2023-03-27T07:48:56.964Z,20.12
2023-03-27T07:51:26.665Z,19.83
2023-03-27T07:53:58.759Z,20.12
2023-03-27T07:56:36.370Z,20.13
2023-03-27T07:59:22.846Z,20.14
2023-03-27T08:01:51.553Z,20.03
2023-03-27T08:04:21.059Z,20.20
2023-03-27T08:07:02.948Z,20.24
2023-03-27T08:09:31.553Z,20.23
2023-03-27T08:11:59.806Z,19.97
2023-03-27T08:14:28.008Z,20.32
2023-03-27T08:17:14.559Z,20.32
2023-03-27T08:19:46.897Z,20.38
2023-03-27T08:22:17.045Z,20.30
2023-03-27T08:25:07.889Z,20.47
2023-03-27T08:27:37.739Z,20.48
2023-03-27T08:30:06.207Z,20.32
2023-03-27T08:32:44.142Z,20.46
2023-03-27T08:35:12.649Z,20.37
2023-03-27T08:37:41.813Z,20.38
2023-03-27T08:40:32.529Z,20.38
2023-03-27T08:43:34.362Z,20.52
2023-03-27T08:46:33.048Z,20.49
2023-03-27T08:49:08.735Z,20.68
2023-03-27T08:52:01.720Z,20.68
2023-03-27T08:54:35.031Z,20.49
2023-03-27T08:57:20.130Z,20.50
2023-03-27T08:59:59.558Z,20.69
2023-03-27T09:02:45.331Z,20.63
2023-03-27T09:05:29.272Z,20.40
2023-03-27T09:08:06.649Z,20.54
2023-03-27T09:10:38.037Z,20.82
2023-03-27T09:13:31.319Z,20.81
2023-03-27T09:16:08.540Z,20.80
2023-03-27T09:19:02.819Z,20.81
2023-03-27T09:21:45.595Z,20.77
2023-03-27T09:24:48.017Z,20.81
2023-03-27T09:27:28.991Z,20.83
2023-03-27T09:30:20.255Z,20.86
2023-03-27T09:33:03.649Z,20.83
2023-03-27T09:35:33.304Z,20.87
2023-03-27T09:38:04.081Z,20.70
2023-03-27T09:40:53.062Z,20.73
2023-03-27T09:43:42.701Z,20.99
2023-03-27T09:46:17.667Z,20.98
2023-03-27T09:49:09.406Z,21.05
2023-03-27T09:51:48.887Z,20.66
2023-03-27T09:54:56.124Z,21.05
2023-03-27T09:57:33.996Z,20.97
2023-03-27T10:00:31.171Z,21.07
2023-03-27T10:03:18.059Z,21.08
2023-03-27T10:06:06.081Z,20.90
2023-03-27T10:08:53.775Z,21.11
2023-03-27T10:11:32.822Z,20.76
2023-03-27T10:14:20.040Z,20.78
2023-03-27T10:16:48.275Z,20.95
2023-03-27T10:19:24.092Z,21.07
2023-03-27T10:21:53.868Z,21.21
2023-03-27T10:24:34.031Z,21.00
2023-03-27T10:27:28.796Z,21.01
2023-03-27T10:30:35.830Z,21.19
2023-03-27T10:33:37.866Z,21.19
2023-03-27T10:36:20.549Z,20.87
2023-03-27T10:38:56.999Z,21.12
2023-03-27T10:41:39.337Z,20.73
2023-03-27T10:44:19.011Z,21.17
2023-03-27T10:46:54.014Z,21.16
2023-03-27T10:49:43.719Z,21.09
2023-03-27T10:52:36.056Z,21.07
2023-03-27T10:55:30.448Z,21.04
2023-03-27T10:58:05.459Z,20.93
2023-03-27T11:00:43.705Z,21.04
2023-03-27T11:03:19.437Z,20.95
2023-03-27T11:05:54.844Z,20.98
2023-03-27T11:09:11.371Z,20.90
2023-03-27T11:12:04.532Z,21.04
2023-03-27T11:14:59.536Z,21.02
2023-03-27T11:18:09.149Z,21.05
2023-03-27T11:20:50.848Z,21.04
2023-03-27T11:23:50.903Z,20.98
2023-03-27T11:27:06.785Z,21.11
2023-03-27T11:29:42.603Z,21.09
2023-03-27T11:32:30.026Z,21.21
2023-03-27T11:35:08.701Z,21.26
2023-03-27T11:38:25.929Z,21.17
2023-03-27T11:40:56.881Z,21.00
2023-03-27T11:43:27.475Z,20.92
2023-03-27T11:46:25.728Z,21.29
2023-03-27T11:49:27.980Z,21.28
2023-03-27T11:52:18.052Z,21.28
2023-03-27T11:55:18.712Z,20.98
2023-03-27T11:57:49.825Z,21.31
2023-03-27T12:00:53.527Z,21.30
2023-03-27T12:03:29.029Z,21.33
2023-03-27T12:06:09.503Z,21.33
2023-03-27T12:08:50.253Z,21.22
2023-03-27T12:11:21.040Z,21.08
2023-03-27T12:14:01.737Z,21.31
2023-03-27T12:16:57.801Z,21.30
2023-03-27T12:19:57.823Z,21.32
2023-03-27T12:22:58.227Z,21.34
2023-03-27T12:26:12.568Z,21.34
2023-03-27T12:29:03.507Z,21.31
2023-03-27T12:32:08.198Z,21.36
2023-03-27T12:34:54.704Z,21.38
2023-03-27T12:37:39.996Z,21.37
2023-03-27T12:40:42.082Z,21.41
2023-03-27T12:43:22.022Z,21.43
2023-03-27T12:46:29.374Z,21.18
2023-03-27T12:49:02.389Z,21.41
2023-03-27T12:51:58.070Z,21.41
2023-03-27T12:55:20.414Z,21.37
2023-03-27T12:58:29.069Z,21.35
2023-03-27T13:01:11.105Z,21.33
2023-03-27T13:04:16.080Z,21.30
2023-03-27T13:06:52.992Z,21.24
2023-03-27T13:09:47.923Z,21.02
2023-03-27T13:12:43.527Z,21.05
2023-03-27T13:15:16.456Z,21.21
2023-03-27T13:18:19.982Z,21.00
2023-03-27T13:21:19.121Z,21.00
2023-03-27T13:24:14.542Z,21.12
2023-03-27T13:26:48.813Z,21.16
2023-03-27T13:29:23.182Z,21.02
2023-03-27T13:32:01.326Z,21.18
2023-03-27T13:34:42.752Z,21.19
2023-03-27T13:37:17.981Z,21.21
2023-03-27T13:39:58.959Z,21.22
2023-03-27T13:42:40.260Z,21.19
2023-03-27T13:45:40.382Z,21.30
2023-03-27T13:48:29.843Z,21.32
2023-03-27T13:51:21.706Z,21.29
2023-03-27T13:54:26.738Z,21.24
2023-03-27T13:57:00.799Z,21.21
2023-03-27T14:00:06.797Z,21.20
2023-03-27T14:03:21.805Z,21.18
2023-03-27T14:06:23.005Z,21.12
2023-03-27T14:09:10.941Z,21.11
2023-03-27T14:12:35.185Z,21.09
2023-03-27T14:15:37.497Z,21.06
2023-03-27T14:18:40.694Z,20.68
2023-03-27T14:21:17.931Z,21.02
2023-03-27T14:24:04.706Z,20.95
2023-03-27T14:26:46.114Z,20.92
2023-03-27T14:29:17.164Z,20.81
2023-03-27T14:31:52.548Z,20.65
2023-03-27T14:34:43.523Z,20.91
2023-03-27T14:37:39.155Z,20.89
2023-03-27T14:40:41.875Z,20.89
2023-03-27T14:43:12.654Z,20.65
2023-03-27T14:45:41.582Z,20.66
2023-03-27T14:48:31.197Z,20.97
2023-03-27T14:51:03.444Z,20.98
2023-03-27T14:53:44.572Z,20.96
2023-03-27T14:56:37.422Z,20.95
2023-03-27T14:59:28.002Z,20.94
2023-03-27T15:02:02.723Z,20.91
2023-03-27T15:04:33.680Z,20.74
2023-03-27T15:07:18.745Z,20.81
2023-03-27T15:10:26.371Z,20.93
2023-03-27T15:13:36.038Z,20.71
2023-03-27T15:16:08.416Z,20.87
2023-03-27T15:19:00.506Z,20.83
2023-03-27T15:21:45.263Z,20.93
2023-03-27T15:24:36.888Z,20.44
2023-03-27T15:27:05.769Z,20.93
2023-03-27T15:29:47.856Z,20.95
2023-03-27T15:32:24.646Z,20.95
2023-03-27T15:34:58.360Z,20.71
2023-03-27T15:37:33.312Z,20.97
2023-03-27T15:40:17.326Z,20.65
2023-03-27T15:42:51.979Z,20.92
2023-03-27T15:45:34.461Z,20.74
2023-03-27T15:48:08.938Z,20.87
2023-03-27T15:50:37.675Z,20.72
2023-03-27T15:53:05.456Z,20.86
2023-03-27T15:55:42.069Z,20.87
2023-03-27T15:58:23.601Z,20.88
2023-03-27T16:00:58.207Z,20.78
2023-03-27T16:03:28.212Z,20.86
2023-03-27T16:05:58.370Z,20.90
2023-03-27T16:08:39.011Z,20.89
2023-03-27T16:11:07.457Z,20.67
2023-03-27T16:13:42.292Z,20.87
2023-03-27T16:16:33.370Z,20.93
2023-03-27T16:19:11.553Z,20.91
2023-03-27T16:21:55.003Z,20.91
2023-03-27T16:24:23.187Z,20.92
2023-03-27T16:26:52.633Z,20.85
2023-03-27T16:29:22.266Z,20.88
2023-03-27T16:31:50.002Z,20.56
2023-03-27T16:34:22.116Z,20.79
2023-03-27T16:36:51.964Z,20.88
2023-03-27T16:39:19.974Z,20.83
2023-03-27T16:41:50.161Z,20.89
2023-03-27T16:44:19.100Z,20.78
2023-03-27T16:46:47.115Z,20.81
2023-03-27T16:49:15.021Z,20.85
2023-03-27T16:51:43.801Z,20.84
2023-03-27T16:54:11.981Z,20.88
2023-03-27T16:56:40.160Z,20.79
2023-03-27T16:59:10.341Z,20.76
2023-03-27T17:01:38.914Z,20.84
2023-03-27T17:04:07.059Z,20.46
2023-03-27T17:06:35.748Z,20.84
2023-03-27T17:09:05.821Z,20.85
2023-03-27T17:11:34.476Z,20.88
2023-03-27T17:14:02.621Z,20.76
2023-03-27T17:16:30.819Z,20.68
2023-03-27T17:18:59.972Z,20.90
2023-03-27T17:21:28.683Z,20.70
2023-03-27T17:23:59.641Z,20.63
2023-03-27T17:26:30.709Z,20.28
2023-03-27T17:28:59.334Z,20.93
2023-03-27T17:31:30.741Z,20.93
2023-03-27T17:33:59.294Z,20.73
2023-03-27T17:36:39.708Z,20.90
2023-03-27T17:39:10.932Z,20.90
2023-03-27T17:41:40.525Z,20.78
2023-03-27T17:44:11.664Z,20.73
2023-03-27T17:46:39.364Z,20.86
2023-03-27T17:49:07.095Z,20.80
2023-03-27T17:51:35.652Z,20.49
2023-03-27T17:54:04.749Z,20.80
2023-03-27T17:56:32.557Z,20.88
2023-03-27T17:59:01.298Z,20.76
2023-03-27T18:01:29.354Z,20.71
2023-03-27T18:03:59.454Z,20.51
2023-03-27T18:06:27.930Z,20.61
2023-03-27T18:08:55.735Z,20.89
2023-03-27T18:11:23.656Z,20.82
2023-03-27T18:13:53.519Z,20.49
2023-03-27T18:16:24.103Z,20.76
2023-03-27T18:18:54.857Z,20.62
2023-03-27T18:21:25.472Z,20.88
2023-03-27T18:23:56.141Z,20.60
2023-03-27T18:26:27.005Z,20.83
2023-03-27T18:28:56.118Z,20.72
2023-03-27T18:31:26.344Z,20.58
2023-03-27T18:33:56.562Z,20.75
2023-03-27T18:36:25.561Z,20.42
2023-03-27T18:38:53.372Z,20.82
2023-03-27T18:41:21.590Z,20.80
2023-03-27T18:43:49.398Z,20.80
2023-03-27T18:46:18.674Z,20.79
2023-03-27T18:48:49.265Z,20.25
2023-03-27T18:51:19.131Z,20.52
2023-03-27T18:53:47.121Z,20.77
2023-03-27T18:56:14.890Z,20.80
2023-03-27T18:58:43.033Z,20.31
2023-03-27T19:01:11.294Z,20.86
2023-03-27T19:03:39.480Z,20.85
2023-03-27T19:06:09.628Z,20.77
2023-03-27T19:08:38.465Z,20.73
2023-03-27T19:11:07.231Z,20.67
2023-03-27T19:13:53.849Z,20.78
2023-03-27T19:16:34.149Z,20.84
2023-03-27T19:19:14.170Z,20.57
2023-03-27T19:21:54.328Z,20.85
2023-03-27T19:24:33.647Z,20.80
2023-03-27T19:27:01.964Z,20.88
2023-03-27T19:29:29.931Z,20.89
2023-03-27T19:31:58.537Z,20.76
2023-03-27T19:34:39.972Z,20.94
2023-03-27T19:37:10.046Z,20.59
2023-03-27T19:39:38.134Z,20.81
2023-03-27T19:42:07.373Z,20.92
2023-03-27T19:44:38.276Z,20.90
2023-03-27T19:47:07.806Z,20.98
2023-03-27T19:49:37.017Z,20.53
2023-03-27T19:52:25.222Z,20.88
2023-03-27T19:54:54.111Z,20.89
2023-03-27T19:57:25.031Z,20.90
2023-03-27T19:59:53.699Z,20.89
2023-03-27T20:02:21.786Z,20.91
2023-03-27T20:04:50.472Z,20.92
2023-03-27T20:07:18.510Z,20.36
2023-03-27T20:09:48.552Z,20.91
2023-03-27T20:12:19.926Z,20.64
2023-03-27T20:14:58.766Z,20.64
2023-03-27T20:17:36.542Z,20.70
2023-03-27T20:20:07.083Z,20.60
2023-03-27T20:22:40.740Z,20.78
2023-03-27T20:25:16.183Z,20.83
2023-03-27T20:27:46.056Z,20.76
2023-03-27T20:30:15.066Z,20.15
2023-03-27T20:32:42.946Z,20.73
2023-03-27T20:35:23.056Z,20.36
2023-03-27T20:37:58.128Z,20.77
2023-03-27T20:40:39.599Z,20.40
2023-03-27T20:43:16.726Z,20.70
2023-03-27T20:45:47.125Z,20.74
2023-03-27T20:48:16.453Z,20.40
2023-03-27T20:50:51.612Z,20.75
2023-03-27T20:53:31.725Z,20.73
2023-03-27T20:56:03.741Z,20.62
2023-03-27T20:58:39.434Z,20.66
2023-03-27T21:01:09.708Z,20.62
2023-03-27T21:03:46.716Z,20.69
2023-03-27T21:06:17.239Z,20.49
2023-03-27T21:08:46.818Z,20.66
2023-03-27T21:11:14.671Z,20.54
2023-03-27T21:13:42.441Z,20.66
2023-03-27T21:16:10.801Z,20.42
2023-03-27T21:18:38.581Z,20.25
2023-03-27T21:21:06.735Z,20.66
2023-03-27T21:23:39.391Z,20.31
2023-03-27T21:26:14.787Z,20.55
2023-03-27T21:28:42.580Z,20.64
2023-03-27T21:31:12.866Z,20.64
2023-03-27T21:33:41.510Z,20.57
2023-03-27T21:36:13.293Z,20.62
2023-03-27T21:38:41.719Z,20.25
2023-03-27T21:41:15.015Z,20.38
2023-03-27T21:43:43.038Z,20.36
2023-03-27T21:46:12.713Z,20.33
2023-03-27T21:51:29.554Z,20.55
2023-03-27T21:53:57.507Z,20.55
2023-03-27T21:56:25.545Z,20.33
2023-03-27T21:58:53.407Z,20.54
2023-03-27T22:01:21.556Z,20.25
2023-03-27T22:03:49.888Z,20.53
2023-03-27T22:06:19.905Z,20.27
2023-03-27T22:08:48.200Z,20.56
2023-03-27T22:11:17.492Z,20.47
2023-03-27T22:13:47.054Z,20.31
2023-03-27T22:16:19.313Z,20.33
2023-03-27T22:18:48.665Z,20.40
2023-03-27T22:21:20.059Z,20.52
2023-03-27T22:23:51.109Z,20.18
2023-03-27T22:26:21.670Z,20.21
2023-03-27T22:28:50.245Z,20.51
2023-03-27T22:31:18.687Z,20.43
2023-03-27T22:33:46.659Z,20.45
2023-03-27T22:36:15.462Z,20.07
2023-03-27T22:38:43.786Z,20.49
2023-03-27T22:41:13.999Z,20.42
2023-03-27T22:43:42.141Z,20.20
2023-03-27T22:46:19.636Z,20.37
2023-03-27T22:48:48.431Z,20.46
2023-03-27T22:51:16.203Z,20.24
2023-03-27T22:53:44.265Z,20.18
2023-03-27T22:56:12.228Z,20.38
2023-03-27T22:58:40.032Z,20.46
2023-03-27T23:01:07.983Z,20.09
2023-03-27T23:03:36.560Z,20.47
2023-03-27T23:06:05.129Z,20.36
2023-03-27T23:08:33.288Z,20.44
2023-03-27T23:11:04.085Z,20.30
2023-03-27T23:13:33.642Z,20.39
2023-03-27T23:16:01.717Z,20.19
2023-03-27T23:18:29.622Z,20.26
2023-03-27T23:21:00.124Z,20.37
2023-03-27T23:23:30.195Z,20.40
2023-03-27T23:25:59.657Z,20.10
2023-03-27T23:28:31.895Z,20.40
2023-03-27T23:31:02.558Z,20.40
2023-03-27T23:33:36.095Z,20.38
2023-03-27T23:36:08.168Z,20.40
2023-03-27T23:38:37.507Z,20.39
2023-03-27T23:41:06.646Z,20.39
2023-03-27T23:43:35.883Z,20.18
2023-03-27T23:46:05.596Z,20.40
2023-03-27T23:48:33.626Z,19.49
2023-03-27T23:51:01.713Z,20.37
2023-03-27T23:53:30.330Z,20.39
2023-03-27T23:56:00.314Z,20.38
2023-03-27T23:58:33.044Z,20.38
